Time;durP1;ratioP1;P1;durP2;ratioP2;P2;SDS_P1;SDS_P2;PMS_P1;PMS_P2;Temp;Humidity;BMP_temperature;BMP_pressure;BME280_temperature;BME280_humidity;BME280_pressure;Samples;Min_cycle;Max_cycle;Signal;HPM_P1;HPM_P2
2021/03/30 00:02:17;;;;;;;3.55;2.15;;;;;;;10.44;45.69;98098.91;4942240;28;20043;-79
2021/03/30 00:04:46;;;;;;;4.07;1.70;;;;;;;10.42;46.03;98100.81;4942511;28;20056;-79
2021/03/30 00:07:18;;;;;;;3.08;1.70;;;;;;;10.40;46.58;98100.13;4942233;28;20047;-79
2021/03/30 00:09:56;;;;;;;3.50;2.10;;;;;;;10.38;46.47;98102.88;4942620;28;20032;-79
2021/03/30 02:09:01;;;;;;;7.55;4.38;;;;;;;8.98;50.41;98067.81;5046675;23;20054;-80
2021/03/30 02:11:34;;;;;;;8.40;4.63;;;;;;;8.97;50.59;98069.59;5002914;28;20034;-80
2021/03/30 02:14:03;;;;;;;6.13;4.80;;;;;;;8.94;50.89;98069.84;5002547;28;20042;-81
2021/03/30 02:16:40;;;;;;;5.65;4.30;;;;;;;8.91;50.55;98070.13;5042454;23;20042;-80
2021/03/30 02:19:13;;;;;;;7.45;5.03;;;;;;;8.89;50.79;98064.25;5002511;28;20054;-81
2021/03/30 02:21:45;;;;;;;9.52;5.47;;;;;;;8.87;51.06;98068.75;5002653;28;20054;-79
2021/03/30 02:24:15;;;;;;;8.68;4.72;;;;;;;8.85;50.87;98071.50;5001950;28;20031;-81
2021/03/30 02:26:47;;;;;;;6.85;4.40;;;;;;;8.82;51.21;98065.75;5002383;28;20057;-80
2021/03/30 02:29:23;;;;;;;8.68;4.63;;;;;;;8.80;51.44;98063.28;5219833;23;20059;-80
2021/03/30 02:31:55;;;;;;;7.10;5.22;;;;;;;8.79;51.44;98064.25;5002324;28;20037;-80
2021/03/30 03:04:08;;;;;;;5.28;3.90;;;;;;;8.57;51.92;98048.84;5000136;28;20073;-81
2021/03/30 03:06:38;;;;;;;6.40;4.07;;;;;;;8.56;51.70;98055.81;5001327;28;20103;-81
2021/03/30 03:09:08;;;;;;;6.05;4.07;;;;;;;8.55;51.95;98062.00;5021488;23;20030;-81
2021/03/30 03:11:40;;;;;;;6.50;4.28;;;;;;;8.55;52.00;98062.00;5002591;28;20039;-81
2021/03/30 03:16:56;;;;;;;6.75;3.85;;;;;;;8.53;52.01;98063.91;5020835;23;20285;-80
2021/03/30 03:19:27;;;;;;;6.05;3.78;;;;;;;8.51;51.70;98063.22;5019754;23;20110;-79
2021/03/30 03:21:57;;;;;;;6.22;3.80;;;;;;;8.49;51.76;98065.13;5131906;23;20058;-79
2021/03/30 03:24:26;;;;;;;7.95;4.28;;;;;;;8.47;51.63;98067.03;5001335;28;20034;-81
2021/03/30 03:26:54;;;;;;;8.13;4.05;;;;;;;8.40;51.88;98069.34;5001250;28;20034;-81
2021/03/30 03:29:23;;;;;;;9.68;4.28;;;;;;;8.36;51.77;98067.09;5155267;23;20059;-79
2021/03/30 03:31:52;;;;;;;9.57;4.47;;;;;;;8.33;51.80;98070.78;5001058;28;20038;-80
2021/03/30 03:34:22;;;;;;;8.02;5.28;;;;;;;8.23;51.62;98069.94;5000732;28;20030;-80
2021/03/30 03:36:54;;;;;;;11.50;5.22;;;;;;;8.16;52.23;98074.00;5044744;23;20055;-80
2021/03/30 03:39:25;;;;;;;10.52;5.05;;;;;;;8.10;52.04;98079.72;5001072;28;20035;-80
2021/03/30 03:41:53;;;;;;;5.97;4.28;;;;;;;8.09;52.17;98078.91;5000976;28;20030;-80
2021/03/30 03:44:22;;;;;;;10.90;4.43;;;;;;;8.09;52.69;98081.50;5114990;23;20039;-81
2021/03/30 03:46:51;;;;;;;12.80;5.25;;;;;;;8.07;52.27;98070.41;5174052;23;20045;-81
2021/03/30 03:49:20;;;;;;;8.32;4.50;;;;;;;8.04;52.56;98074.06;5000741;28;20050;-80
2021/03/30 03:51:52;;;;;;;7.93;3.92;;;;;;;8.02;53.20;98078.59;5000806;28;20027;-80
2021/03/30 03:54:23;;;;;;;8.50;3.75;;;;;;;8.04;53.21;98073.25;5000879;28;20038;-79
2021/03/30 03:56:56;;;;;;;3.35;2.45;;;;;;;8.02;52.96;98072.56;5000814;28;20055;-80
2021/03/30 03:59:30;;;;;;;3.90;2.58;;;;;;;8.02;52.89;98077.75;5000952;28;20031;-81
2021/03/30 04:02:08;;;;;;;4.13;2.70;;;;;;;8.06;52.77;98084.34;5002865;23;20053;-75
2021/03/30 04:04:42;;;;;;;4.75;2.92;;;;;;;8.10;53.00;98080.53;4979482;28;20055;-77
2021/03/30 04:07:17;;;;;;;9.50;3.17;;;;;;;8.14;53.26;98074.13;4981240;28;20046;-76
2021/03/30 04:09:49;;;;;;;8.13;3.60;;;;;;;8.14;52.71;98066.34;4980644;28;20428;-76
2021/03/30 04:12:17;;;;;;;5.40;2.80;;;;;;;8.14;52.53;98074.13;4980023;28;20046;-76
2021/03/30 04:14:44;;;;;;;6.18;2.67;;;;;;;8.14;52.55;98076.72;4978717;28;20494;-76
2021/03/30 04:17:13;;;;;;;5.40;2.95;;;;;;;8.13;52.96;98076.84;4979741;28;20075;-78
2021/03/30 04:19:40;;;;;;;6.47;3.05;;;;;;;8.12;52.50;98080.41;4979021;28;20058;-77
2021/03/30 04:22:07;;;;;;;3.78;2.65;;;;;;;8.10;52.76;98080.53;4980441;28;20073;-77
2021/03/30 04:24:33;;;;;;;4.85;2.88;;;;;;;8.09;52.24;98080.66;4979987;28;20501;-77
2021/03/30 04:27:01;;;;;;;7.97;3.35;;;;;;;8.07;52.64;98080.81;4979340;28;20424;-77
2021/03/30 04:29:27;;;;;;;8.90;4.43;;;;;;;8.03;52.35;98077.63;4980045;28;20081;-76
2021/03/30 04:31:54;;;;;;;7.68;4.70;;;;;;;8.00;52.40;98085.69;4979465;28;20051;-78
2021/03/30 04:34:21;;;;;;;7.32;4.07;;;;;;;7.98;52.58;98081.56;4979470;28;20137;-77
2021/03/30 04:36:47;;;;;;;8.70;4.88;;;;;;;7.92;52.28;98080.31;4980219;28;20057;-77
2021/03/30 04:39:14;;;;;;;9.20;4.88;;;;;;;7.87;52.38;98089.44;4980083;28;20509;-78
2021/03/30 04:41:40;;;;;;;8.77;6.35;;;;;;;7.81;52.44;98083.00;4980339;28;20402;-77
2021/03/30 04:44:08;;;;;;;14.88;6.28;;;;;;;7.76;52.83;98092.91;4979326;28;20093;-78
2021/03/30 04:46:35;;;;;;;11.18;6.15;;;;;;;7.71;52.94;98090.69;4979760;28;20111;-78
2021/03/30 04:49:01;;;;;;;10.40;6.68;;;;;;;7.63;52.63;98087.91;4979228;28;20050;-79
2021/03/30 04:51:28;;;;;;;12.55;6.82;;;;;;;7.57;53.30;98093.63;4978969;28;20412;-78
2021/03/30 04:53:54;;;;;;;9.30;6.32;;;;;;;7.56;53.39;98089.38;4979122;28;20435;-78
2021/03/30 04:56:21;;;;;;;11.65;6.65;;;;;;;7.55;53.30;98091.16;4979435;28;20053;-79
2021/03/30 04:58:48;;;;;;;17.85;7.40;;;;;;;7.55;53.23;98091.16;4978647;28;20055;-77
2021/03/30 05:01:15;;;;;;;8.70;6.30;;;;;;;7.56;53.65;98089.38;4978350;28;20053;-77
2021/03/30 05:03:42;;;;;;;10.90;5.85;;;;;;;7.55;53.53;98091.16;4978622;28;20051;-78
2021/03/30 05:06:08;;;;;;;10.07;5.55;;;;;;;7.55;53.38;98088.56;4979123;28;20058;-78
2021/03/30 05:08:35;;;;;;;9.10;5.97;;;;;;;7.56;53.48;98091.97;4979364;28;20429;-77
2021/03/30 05:11:01;;;;;;;17.02;6.80;;;;;;;7.55;53.86;98095.53;4979243;28;20051;-82
2021/03/30 05:13:28;;;;;;;11.82;5.72;;;;;;;7.56;53.45;98104.94;4978374;28;20062;-78
2021/03/30 05:15:55;;;;;;;13.27;7.05;;;;;;;7.54;53.75;98104.25;4978591;28;20061;-77
2021/03/30 05:18:22;;;;;;;11.63;6.30;;;;;;;7.51;53.49;98107.09;4978801;28;20051;-77
2021/03/30 05:20:49;;;;;;;12.65;6.35;;;;;;;7.48;53.66;98105.59;4978868;28;20047;-78
2021/03/30 05:23:15;;;;;;;14.85;6.57;;;;;;;7.47;53.87;98110.91;4978877;28;20051;-76
2021/03/30 05:25:42;;;;;;;16.30;6.85;;;;;;;7.42;53.25;98096.53;4979080;28;20054;-77
2021/03/30 05:28:09;;;;;;;17.85;6.72;;;;;;;7.39;53.81;98106.31;4978791;28;20055;-77
2021/03/30 05:30:35;;;;;;;12.45;6.05;;;;;;;7.31;54.10;98101.75;4978912;28;20105;-78
2021/03/30 05:33:02;;;;;;;14.38;6.75;;;;;;;7.25;54.09;98104.03;4982036;28;20412;-78
2021/03/30 05:35:30;;;;;;;17.02;6.70;;;;;;;7.18;54.10;98103.69;4982484;28;20417;-77
2021/03/30 05:37:57;;;;;;;13.52;6.13;;;;;;;7.14;54.66;98108.31;4983201;28;20055;-78
2021/03/30 05:40:23;;;;;;;11.13;6.18;;;;;;;7.11;54.32;98105.97;4982951;28;20142;-78
2021/03/30 05:42:50;;;;;;;14.70;6.30;;;;;;;7.12;54.69;98115.38;4984810;28;20440;-80
2021/03/30 05:45:18;;;;;;;14.93;6.10;;;;;;;7.11;54.26;98113.75;4985153;28;20058;-77
2021/03/30 05:47:45;;;;;;;15.10;5.90;;;;;;;7.13;54.60;98117.03;4986367;28;20684;-76
2021/03/30 05:50:14;;;;;;;11.98;6.68;;;;;;;7.16;54.67;98115.97;4982288;28;20051;-79
2021/03/30 05:52:48;;;;;;;16.90;7.03;;;;;;;7.18;54.70;98114.91;4984408;28;20042;-76
2021/03/30 05:55:23;;;;;;;24.90;8.27;;;;;;;7.23;54.87;98119.72;4984219;28;20050;-78
2021/03/30 05:57:51;;;;;;;13.68;6.78;;;;;;;7.26;54.66;98122.09;4984952;28;20490;-80
2021/03/30 06:00:21;;;;;;;17.50;6.95;;;;;;;7.31;54.85;98119.94;4984577;28;20413;-79
2021/03/30 06:02:50;;;;;;;15.95;7.13;;;;;;;7.36;54.97;98133.34;4983084;28;20089;-82
2021/03/30 06:05:22;;;;;;;16.83;8.43;;;;;;;7.35;54.55;98131.72;4984635;28;20057;-81
2021/03/30 06:07:51;;;;;;;15.32;7.85;;;;;;;7.34;54.55;98132.66;4964885;28;20439;-78
2021/03/30 06:10:21;;;;;;;19.63;8.02;;;;;;;7.36;55.08;98130.75;4964042;29;20059;-81
2021/03/30 06:12:47;;;;;;;15.18;7.72;;;;;;;7.39;54.71;98130.53;4967573;28;20043;-82
2021/03/30 06:15:15;;;;;;;24.05;8.93;;;;;;;7.41;54.48;98136.44;4970754;28;20051;-82
2021/03/30 06:17:44;;;;;;;17.15;8.98;;;;;;;7.41;54.66;98141.63;4975211;28;20063;-78
2021/03/30 06:20:12;;;;;;;20.67;10.07;;;;;;;7.42;55.02;98143.25;4984654;28;20469;-80
2021/03/30 06:22:50;;;;;;;17.48;8.00;;;;;;;7.40;55.15;98142.53;4967671;28;20057;-77
2021/03/30 06:25:42;;;;;;;13.07;6.88;;;;;;;7.38;54.94;98139.25;4961094;28;20130;-79
2021/03/30 06:28:14;;;;;;;14.13;7.40;;;;;;;7.38;55.27;98146.22;4972474;28;20059;-80
2021/03/30 06:30:54;;;;;;;13.20;6.85;;;;;;;7.38;55.21;98147.03;4976718;28;20055;-79
2021/03/30 06:33:21;;;;;;;19.90;8.02;;;;;;;7.38;54.95;98147.03;4980826;28;20058;-78
2021/03/30 06:35:48;;;;;;;14.70;8.45;;;;;;;7.39;55.26;98140.91;4982730;28;20074;-77
2021/03/30 06:38:16;;;;;;;31.05;9.10;;;;;;;7.42;55.35;98143.25;4982466;28;20050;-78
2021/03/30 06:40:44;;;;;;;14.57;7.47;;;;;;;7.45;55.06;98142.16;4972068;28;20043;-80
2021/03/30 06:46:06;;;;;;;15.38;8.40;;;;;;;7.55;55.16;98152.66;4959261;28;20062;-82
2021/03/30 06:48:33;;;;;;;18.50;7.70;;;;;;;7.61;55.15;98136.59;4969257;29;20039;-80
2021/03/30 06:51:16;;;;;;;16.67;8.50;;;;;;;7.71;56.24;98132.25;4968535;29;20111;-81
2021/03/30 06:53:44;;;;;;;22.40;9.10;;;;;;;7.79;55.96;98134.25;4968275;29;20057;-82
2021/03/30 06:56:10;;;;;;;14.93;8.30;;;;;;;7.90;55.96;98141.16;4967642;29;20050;-80
2021/03/30 06:58:56;;;;;;;17.27;7.68;;;;;;;8.01;55.37;98133.28;4972049;28;20057;-84
2021/03/30 07:01:24;;;;;;;11.80;6.82;;;;;;;8.11;55.87;98134.19;4987025;28;20042;-81
2021/03/30 07:03:53;;;;;;;15.38;8.07;;;;;;;8.20;55.60;98128.19;4983823;28;20061;-80
2021/03/30 07:06:20;;;;;;;16.90;8.63;;;;;;;8.31;55.59;98135.09;4985229;28;20058;-81
2021/03/30 07:08:48;;;;;;;18.83;8.80;;;;;;;8.41;55.58;98130.78;4985950;28;20057;-79
2021/03/30 07:11:16;;;;;;;14.88;8.05;;;;;;;8.55;55.94;98126.16;4985402;28;20134;-80
2021/03/30 07:13:43;;;;;;;13.50;7.90;;;;;;;8.65;55.82;98122.66;4986472;28;20133;-81
2021/03/30 07:16:15;;;;;;;17.95;8.88;;;;;;;8.78;55.90;98119.00;4983924;28;20051;-80
2021/03/30 07:18:44;;;;;;;12.48;8.57;;;;;;;8.92;55.52;98123.84;4982323;28;20046;-81
2021/03/30 07:21:16;;;;;;;14.63;8.60;;;;;;;9.06;55.08;98117.41;4976849;28;20065;-79
2021/03/30 07:23:47;;;;;;;17.73;10.35;;;;;;;9.20;55.45;98122.22;4964184;29;20053;-78
2021/03/30 07:26:21;;;;;;;16.45;8.75;;;;;;;9.37;55.11;98123.34;4975573;28;20506;-84
2021/03/30 07:28:53;;;;;;;16.05;8.57;;;;;;;9.53;54.78;98114.16;4967488;28;20482;-78
2021/03/30 07:31:26;;;;;;;21.73;9.75;;;;;;;9.70;55.04;98118.66;4975162;28;20055;-80
2021/03/30 07:34:00;;;;;;;14.52;8.57;;;;;;;9.87;54.79;98115.34;4985444;28;20046;-81
2021/03/30 07:36:32;;;;;;;19.30;9.50;;;;;;;10.04;54.81;98115.59;4986864;28;20512;-79
2021/03/30 07:39:01;;;;;;;19.38;9.35;;;;;;;10.20;54.60;98121.03;4985632;28;20525;-78
2021/03/30 07:41:29;;;;;;;16.77;9.25;;;;;;;10.36;54.82;98114.44;4986828;28;20051;-83
2021/03/30 07:44:01;;;;;;;16.55;8.25;;;;;;;10.53;53.95;98118.91;4986714;28;20057;-80
2021/03/30 07:46:30;;;;;;;18.05;8.95;;;;;;;10.70;53.95;98117.31;4987460;28;20065;-79
2021/03/30 07:48:57;;;;;;;19.45;9.13;;;;;;;10.88;53.63;98120.78;4988278;28;20082;-82
2021/03/30 07:51:34;;;;;;;15.80;9.13;;;;;;;11.07;53.38;98122.47;4987345;28;20054;-80
2021/03/30 07:54:09;;;;;;;14.10;8.77;;;;;;;11.27;51.99;98115.31;4985488;28;20074;-77
2021/03/30 07:57:03;;;;;;;20.98;9.75;;;;;;;11.47;50.72;98123.81;4978874;28;20130;-80
2021/03/30 07:59:45;;;;;;;17.20;8.98;;;;;;;11.67;50.75;98116.63;4943356;28;20139;-82
2021/03/30 08:02:16;;;;;;;21.67;8.97;;;;;;;11.85;50.58;98119.25;4965874;29;20107;-80
2021/03/30 08:05:05;;;;;;;19.33;8.38;;;;;;;12.08;49.71;98116.16;4965849;29;20446;-78
2021/03/30 08:07:49;;;;;;;11.43;7.95;;;;;;;12.29;49.17;98115.78;4961436;28;20098;-77
2021/03/30 08:10:32;;;;;;;13.55;8.32;;;;;;;12.47;48.75;98113.91;4963411;29;20051;-80
2021/03/30 08:13:26;;;;;;;14.77;8.35;;;;;;;12.68;48.85;98121.38;4964075;28;20105;-79
2021/03/30 08:15:54;;;;;;;17.65;9.00;;;;;;;12.86;48.24;98115.22;4963982;28;20051;-79
2021/03/30 08:18:23;;;;;;;15.52;7.88;;;;;;;13.04;49.01;98109.84;4964908;29;20063;-81
2021/03/30 08:20:54;;;;;;;12.93;8.73;;;;;;;13.26;47.98;98106.63;4967476;28;20047;-80
2021/03/30 08:23:21;;;;;;;12.13;8.32;;;;;;;13.49;47.41;98112.09;4986251;28;20046;-81
2021/03/30 08:25:52;;;;;;;15.68;8.30;;;;;;;13.72;46.73;98114.06;4986879;28;20050;-89
2021/03/30 08:28:55;;;;;;;11.48;6.97;;;;;;;13.95;45.85;98114.19;4984710;28;20077;-82
2021/03/30 08:31:25;;;;;;;13.27;8.15;;;;;;;14.14;46.11;98113.84;4981833;28;20078;-81
2021/03/30 08:33:54;;;;;;;13.98;7.00;;;;;;;14.34;47.08;98106.44;4984472;28;20046;-80
2021/03/30 08:36:24;;;;;;;9.48;5.97;;;;;;;14.55;46.29;98110.31;4983824;28;20063;-77
2021/03/30 08:38:53;;;;;;;13.07;5.43;;;;;;;14.76;44.19;98113.19;4983457;28;20055;-78
2021/03/30 08:41:53;;;;;;;12.02;5.72;;;;;;;15.01;44.36;98113.06;4983515;28;20118;-76
2021/03/30 08:44:24;;;;;;;9.88;6.50;;;;;;;15.28;43.15;98108.31;4985368;28;20532;-78
2021/03/30 08:46:53;;;;;;;11.05;6.50;;;;;;;15.53;42.60;98117.66;4983247;28;20074;-77
2021/03/30 08:49:28;;;;;;;10.68;6.93;;;;;;;15.86;41.40;98114.81;4983022;28;20150;-78
2021/03/30 08:52:00;;;;;;;12.20;6.85;;;;;;;16.32;41.01;98117.31;4986725;28;20061;-79
2021/03/30 08:54:28;;;;;;;7.07;5.50;;;;;;;16.92;40.49;98115.47;4984519;28;20057;-79
2021/03/30 08:57:01;;;;;;;9.40;6.18;;;;;;;17.61;38.77;98114.97;4985963;28;20137;-79
2021/03/30 08:59:29;;;;;;;9.32;5.72;;;;;;;18.33;38.05;98123.69;4985826;28;20047;-79
2021/03/30 09:02:01;;;;;;;11.18;5.68;;;;;;;19.03;36.56;98118.34;4984970;28;20078;-77
2021/03/30 09:04:33;;;;;;;12.85;5.63;;;;;;;19.63;35.20;98121.91;4966109;28;20047;-78
2021/03/30 09:06:59;;;;;;;14.70;5.30;;;;;;;20.15;35.06;98117.66;4981772;28;20134;-79
2021/03/30 09:09:33;;;;;;;11.48;5.93;;;;;;;20.67;33.40;98123.09;4984781;28;20051;-78
2021/03/30 09:12:00;;;;;;;9.88;5.78;;;;;;;21.19;32.61;98118.59;4984075;28;20300;-80
2021/03/30 09:14:27;;;;;;;8.93;5.50;;;;;;;21.69;31.63;98117.91;4978228;28;20051;-77
2021/03/30 09:17:04;;;;;;;9.07;5.60;;;;;;;22.13;29.38;98124.06;4962585;29;20094;-79
2021/03/30 09:19:32;;;;;;;8.18;5.10;;;;;;;22.49;28.75;98119.84;4976447;28;20188;-79
2021/03/30 09:22:01;;;;;;;7.55;5.25;;;;;;;22.86;28.18;98117.19;4968041;28;20047;-80
2021/03/30 09:24:46;;;;;;;7.10;4.65;;;;;;;23.22;27.62;98115.50;4961694;28;20122;-78
2021/03/30 09:27:14;;;;;;;7.10;4.30;;;;;;;23.59;27.30;98104.72;4964547;28;20055;-79
2021/03/30 09:29:41;;;;;;;9.73;5.20;;;;;;;23.94;26.55;98109.34;4959618;28;20532;-80
2021/03/30 09:32:09;;;;;;;5.55;4.35;;;;;;;24.23;25.10;98116.41;4961337;29;20109;-79
2021/03/30 09:34:38;;;;;;;10.57;4.60;;;;;;;24.55;23.88;98110.72;4961008;28;20055;-78
2021/03/30 09:37:05;;;;;;;7.40;5.28;;;;;;;24.82;24.07;98112.88;4959747;29;20060;-78
2021/03/30 09:39:34;;;;;;;8.20;4.38;;;;;;;25.07;22.04;98100.00;4958364;29;20051;-78
2021/03/30 09:42:04;;;;;;;17.38;5.40;;;;;;;25.30;21.74;98103.66;4959525;29;20074;-77
2021/03/30 09:44:34;;;;;;;12.27;3.92;;;;;;;25.47;19.82;98104.50;4959162;29;20506;-79
2021/03/30 09:47:07;;;;;;;8.77;4.70;;;;;;;25.66;20.82;98102.41;4958518;29;20514;-79
2021/03/30 09:49:34;;;;;;;14.48;4.53;;;;;;;25.75;18.94;98092.13;4957110;28;20067;-78
2021/03/30 09:52:03;;;;;;;7.55;3.80;;;;;;;25.81;18.68;98099.16;4959688;28;20047;-80
2021/03/30 09:54:31;;;;;;;11.57;3.97;;;;;;;25.89;18.81;98100.66;4959820;29;20055;-79
2021/03/30 09:57:03;;;;;;;54.13;8.98;;;;;;;25.94;18.19;98092.72;4959804;28;20062;-78
2021/03/30 09:59:30;;;;;;;;;;;;;;;26.19;18.98;98094.94;4958833;29;20053;-80
2021/03/30 10:01:59;;;;;;;15.80;4.95;;;;;;;26.21;19.19;98092.84;4958018;29;19922;-77
2021/03/30 10:04:26;;;;;;;7.80;4.20;;;;;;;26.26;18.27;98090.25;4960336;29;20076;-79
2021/03/30 10:06:55;;;;;;;7.15;3.17;;;;;;;26.30;18.50;98075.31;4959680;28;20051;-79
2021/03/30 10:09:22;;;;;;;7.43;3.70;;;;;;;26.44;18.72;98081.09;4959536;29;20055;-77
2021/03/30 10:11:50;;;;;;;7.10;3.20;;;;;;;26.53;18.27;98073.47;4959199;29;20066;-76
2021/03/30 10:14:30;;;;;;;5.85;2.75;;;;;;;26.58;17.76;98076.22;4958386;29;20413;-78
2021/03/30 10:16:58;;;;;;;6.60;3.17;;;;;;;26.51;17.11;98064.88;4958213;28;20184;-78
2021/03/30 10:19:25;;;;;;;9.63;4.10;;;;;;;26.43;17.20;98074.13;4962099;28;20094;-79
2021/03/30 10:21:54;;;;;;;9.23;3.00;;;;;;;26.48;17.84;98068.06;4973407;28;20047;-78
2021/03/30 10:24:22;;;;;;;6.88;3.20;;;;;;;26.63;17.81;98070.94;4980059;28;20138;-78
2021/03/30 10:27:03;;;;;;;5.50;2.90;;;;;;;26.75;17.35;98075.34;4979448;28;20051;-77
2021/03/30 10:29:39;;;;;;;9.57;3.75;;;;;;;26.84;17.68;98063.13;4979898;28;20527;-77
2021/03/30 10:32:11;;;;;;;12.10;3.88;;;;;;;26.93;17.44;98056.28;4979997;28;20042;-78
2021/03/30 10:34:38;;;;;;;9.90;4.15;;;;;;;27.00;17.39;98062.22;4979666;28;20062;-78
2021/03/30 10:37:07;;;;;;;5.80;3.75;;;;;;;27.06;17.37;98065.78;4979361;28;20058;-78
2021/03/30 10:39:36;;;;;;;6.00;3.88;;;;;;;27.11;16.95;98058.63;4984829;28;20046;-78
2021/03/30 10:42:06;;;;;;;7.40;3.90;;;;;;;27.18;17.53;98057.56;4981875;28;20142;-77
2021/03/30 10:44:38;;;;;;;4.45;3.70;;;;;;;27.26;16.86;98054.47;4981029;28;20050;-78
2021/03/30 10:47:17;;;;;;;4.32;3.40;;;;;;;27.31;17.59;98051.84;4981110;28;20051;-78
2021/03/30 10:49:45;;;;;;;6.70;3.65;;;;;;;27.39;16.90;98039.84;4980970;28;20374;-78
2021/03/30 10:52:23;;;;;;;6.22;3.40;;;;;;;27.42;16.85;98042.84;4981094;28;20047;-78
2021/03/30 10:54:53;;;;;;;9.05;4.10;;;;;;;27.47;17.23;98045.56;4962427;28;20483;-77
2021/03/30 10:57:22;;;;;;;6.40;3.75;;;;;;;27.43;15.93;98041.78;4964687;28;20418;-79
2021/03/30 10:59:49;;;;;;;10.07;3.47;;;;;;;27.45;16.00;98034.28;4962695;28;20125;-77
2021/03/30 11:02:17;;;;;;;6.03;3.20;;;;;;;27.53;16.51;98039.19;4969399;28;20074;-79
2021/03/30 11:04:43;;;;;;;7.28;3.13;;;;;;;27.64;16.78;98033.88;4982729;28;20055;-77
2021/03/30 11:07:11;;;;;;;3.50;2.95;;;;;;;27.73;16.11;98027.78;4981561;28;20054;-80
2021/03/30 11:09:38;;;;;;;5.93;3.20;;;;;;;27.81;16.59;98036.41;4971122;28;20050;-78
2021/03/30 11:12:07;;;;;;;7.90;3.75;;;;;;;27.88;15.60;98027.13;4962983;29;20057;-80
2021/03/30 11:14:33;;;;;;;6.90;3.97;;;;;;;27.86;15.35;98026.56;4962608;29;20047;-78
2021/03/30 11:17:00;;;;;;;5.88;3.17;;;;;;;27.85;16.08;98024.13;4964038;28;20051;-80
2021/03/30 11:19:28;;;;;;;4.40;3.05;;;;;;;27.85;15.56;98022.25;4962919;29;20578;-77
2021/03/30 11:21:55;;;;;;;6.22;3.20;;;;;;;27.87;15.73;98022.81;4976800;28;20047;-79
2021/03/30 11:24:23;;;;;;;6.90;3.10;;;;;;;27.93;15.20;98021.78;4982126;28;20058;-80
2021/03/30 11:26:52;;;;;;;9.45;3.28;;;;;;;28.05;15.65;98018.09;4981253;28;20051;-79
2021/03/30 11:29:23;;;;;;;10.07;3.92;;;;;;;28.15;15.01;98015.47;4981416;28;20058;-79
2021/03/30 11:34:40;;;;;;;10.10;3.60;;;;;;;28.00;15.56;98020.75;4967899;28;20145;-79
2021/03/30 11:37:16;;;;;;;10.15;3.40;;;;;;;27.93;15.86;98011.06;4961931;29;20225;-77
2021/03/30 11:39:43;;;;;;;7.00;3.60;;;;;;;27.92;15.57;98009.44;4961167;28;20053;-77
2021/03/30 11:42:10;;;;;;;5.47;3.20;;;;;;;27.92;14.68;98009.44;4960797;28;20491;-76
2021/03/30 11:44:37;;;;;;;4.70;3.25;;;;;;;27.83;14.53;98005.59;4960964;29;20050;-78
2021/03/30 11:47:04;;;;;;;6.53;2.90;;;;;;;27.78;15.42;98002.88;4977396;28;20066;-76
2021/03/30 11:49:33;;;;;;;10.55;2.92;;;;;;;27.79;14.75;97992.97;4980992;28;20514;-78
2021/03/30 11:52:00;;;;;;;6.85;3.40;;;;;;;27.74;14.34;98001.78;4981384;28;20525;-78
2021/03/30 11:54:28;;;;;;;16.83;4.65;;;;;;;27.65;14.63;97993.41;4981101;28;20234;-79
2021/03/30 11:56:55;;;;;;;10.45;3.67;;;;;;;27.66;14.48;97991.53;4962737;28;20058;-80
2021/03/30 11:59:25;;;;;;;6.53;2.90;;;;;;;27.67;14.97;97993.97;4961885;29;20066;-80
2021/03/30 12:01:52;;;;;;;11.68;4.10;;;;;;;27.63;14.25;97987.50;4960915;29;20061;-81
2021/03/30 12:04:19;;;;;;;5.40;2.70;;;;;;;27.59;14.92;97982.91;4965254;29;20053;-81
2021/03/30 12:06:46;;;;;;;23.80;5.05;;;;;;;27.53;14.37;97990.94;4974085;28;20082;-79
2021/03/30 12:09:13;;;;;;;7.88;3.55;;;;;;;27.40;14.48;97977.97;4967307;29;20130;-79
2021/03/30 12:11:43;;;;;;;5.78;3.13;;;;;;;27.28;14.40;97982.69;4966154;28;20047;-79
2021/03/30 12:14:11;;;;;;;4.20;2.40;;;;;;;27.18;14.76;97979.91;4961746;29;20050;-79
2021/03/30 12:16:37;;;;;;;7.47;2.40;;;;;;;27.09;14.95;97980.38;4960162;28;20052;-79
2021/03/30 12:19:06;;;;;;;5.90;2.65;;;;;;;27.03;15.14;97972.56;4960101;28;20051;-79
2021/03/30 12:21:32;;;;;;;6.15;2.92;;;;;;;27.05;15.65;97973.91;4969856;28;20493;-78
2021/03/30 12:23:59;;;;;;;3.90;2.00;;;;;;;27.06;15.27;97967.50;4980849;28;20050;-80
2021/03/30 12:26:26;;;;;;;3.10;2.22;;;;;;;26.97;14.84;97961.00;4980167;28;20133;-78
2021/03/30 12:28:52;;;;;;;4.32;2.30;;;;;;;26.83;15.07;97965.13;4967675;28;20055;-82
2021/03/30 12:31:24;;;;;;;5.70;2.95;;;;;;;26.70;15.86;97955.66;4960551;28;20052;-81
2021/03/30 12:33:50;;;;;;;9.18;3.10;;;;;;;26.59;15.62;97948.56;4960558;29;20549;-78
2021/03/30 12:36:18;;;;;;;5.57;2.65;;;;;;;26.49;15.15;97944.69;4961088;29;20053;-78
2021/03/30 12:38:44;;;;;;;3.20;2.67;;;;;;;26.39;15.46;97944.63;4960852;29;20055;-78
2021/03/30 12:41:11;;;;;;;5.15;2.60;;;;;;;26.32;15.60;97938.63;4960379;28;20063;-78
2021/03/30 12:43:38;;;;;;;3.42;2.20;;;;;;;26.25;15.22;97935.34;4965633;28;20601;-80
2021/03/30 12:46:08;;;;;;;7.05;2.88;;;;;;;26.11;15.42;97937.59;4981264;28;20208;-78
2021/03/30 12:48:34;;;;;;;2.38;2.17;;;;;;;26.06;15.42;97927.66;4980570;28;20441;-78
2021/03/30 12:51:01;;;;;;;4.80;2.70;;;;;;;26.09;14.81;97929.81;4978426;28;20059;-76
2021/03/30 12:53:29;;;;;;;6.50;2.72;;;;;;;26.07;15.02;97931.13;4975592;28;20118;-78
2021/03/30 12:55:55;;;;;;;4.25;2.65;;;;;;;26.01;15.20;97926.78;4975887;28;20047;-77
2021/03/30 12:58:22;;;;;;;2.50;2.30;;;;;;;25.92;15.17;97934.41;4976004;28;20082;-78
2021/03/30 13:00:49;;;;;;;3.95;2.58;;;;;;;25.78;14.69;97923.25;4974822;28;20050;-80
2021/03/30 13:03:32;;;;;;;4.82;2.92;;;;;;;25.78;14.83;97927.78;4964638;28;20204;-78
2021/03/30 13:05:58;;;;;;;2.78;2.42;;;;;;;25.78;14.79;97917.91;4957925;28;20083;-78
2021/03/30 13:08:25;;;;;;;3.95;2.53;;;;;;;25.67;15.01;97910.81;4957888;29;20043;-78
2021/03/30 13:10:52;;;;;;;4.60;2.75;;;;;;;25.59;14.89;97903.22;4956189;28;20062;-77
2021/03/30 13:13:19;;;;;;;4.07;2.28;;;;;;;25.55;15.29;97910.13;4955894;29;20062;-79
2021/03/30 13:15:46;;;;;;;18.20;2.95;;;;;;;25.53;15.23;97904.22;4957363;28;20055;-79
2021/03/30 13:18:13;;;;;;;6.47;2.53;;;;;;;25.44;15.71;97893.94;4957375;29;20047;-75
2021/03/30 13:20:39;;;;;;;8.88;2.90;;;;;;;25.37;15.61;97895.97;4956132;28;20057;-80
2021/03/30 13:23:06;;;;;;;2.15;1.95;;;;;;;25.33;15.42;97889.50;4956051;29;20054;-78
2021/03/30 13:25:33;;;;;;;5.78;2.45;;;;;;;25.31;15.46;97891.63;4974270;28;20062;-79
2021/03/30 13:28:07;;;;;;;2.75;2.42;;;;;;;25.26;15.79;97883.53;4976325;28;20057;-77
2021/03/30 13:30:36;;;;;;;6.18;2.63;;;;;;;25.18;15.90;97887.38;4976876;28;20050;-77
2021/03/30 13:33:03;;;;;;;5.80;3.05;;;;;;;25.19;15.19;97880.19;4976852;28;20058;-77
2021/03/30 13:35:30;;;;;;;3.85;3.00;;;;;;;25.22;15.65;97877.06;4974432;28;20421;-79
2021/03/30 13:37:57;;;;;;;3.83;2.63;;;;;;;25.16;15.59;97878.00;4977486;28;20057;-78
2021/03/30 13:40:24;;;;;;;4.05;2.25;;;;;;;25.11;15.77;97880.63;4978167;28;20493;-80
2021/03/30 13:42:51;;;;;;;3.47;2.40;;;;;;;25.07;16.03;97875.75;4977861;28;20055;-76
2021/03/30 13:45:18;;;;;;;5.15;2.47;;;;;;;25.04;16.31;97878.91;4978284;28;20057;-78
2021/03/30 13:47:45;;;;;;;19.25;3.70;;;;;;;24.97;15.94;97869.44;4976845;28;20043;-80
2021/03/30 13:50:13;;;;;;;17.13;3.90;;;;;;;24.90;15.28;97869.59;4976971;28;20432;-77
2021/03/30 13:52:39;;;;;;;8.77;3.40;;;;;;;24.84;15.49;97859.94;4978880;28;20051;-78
2021/03/30 13:55:08;;;;;;;7.13;2.90;;;;;;;24.81;15.67;97863.06;4972718;28;20825;-79
2021/03/30 13:57:35;;;;;;;4.55;2.50;;;;;;;24.75;15.05;97866.69;4962845;28;20058;-79
2021/03/30 14:00:04;;;;;;;3.72;2.65;;;;;;;24.67;15.13;97860.72;4962146;29;20055;-79
2021/03/30 14:02:31;;;;;;;5.10;2.97;;;;;;;24.63;15.14;97858.78;4961160;28;20055;-80
2021/03/30 14:04:58;;;;;;;7.85;3.10;;;;;;;24.61;15.92;97855.53;4961779;29;20053;-78
2021/03/30 14:07:25;;;;;;;4.65;3.13;;;;;;;24.59;16.28;97846.97;4962901;29;20142;-79
2021/03/30 14:09:51;;;;;;;7.15;4.32;;;;;;;24.58;17.26;97850.69;4961131;28;20138;-78
2021/03/30 14:12:22;;;;;;;9.10;5.80;;;;;;;24.57;18.00;97839.19;4960066;28;20057;-78
2021/03/30 14:14:53;;;;;;;10.40;5.50;;;;;;;24.53;18.65;97840.72;4960346;29;20081;-79
2021/03/30 14:17:26;;;;;;;8.97;5.57;;;;;;;24.48;18.98;97840.66;4960626;28;20051;-79
2021/03/30 14:19:57;;;;;;;8.23;5.93;;;;;;;24.38;18.89;97835.94;4960874;28;20078;-76
2021/03/30 14:22:25;;;;;;;10.73;6.85;;;;;;;24.27;19.51;97834.94;4976945;28;20685;-78